Auburn, Missouri
Current Conditions -  °F | °C
As of 2:54 PM on Thursday 18 Dec 2014 (Local Time) from KSET Reporting Station
Overcast Overcast  
Wind Chill: 35°   Ceiling: 4400
Heat Index: 35°   Visibility: 9mi
Dew Point: 25°   Wind: 0mph
Humidity: 67%   Direction: NA
Pressure: 30.23"   Gusts: NA
Location:  39.1646°N, 90.8436°W
Report Text: KSET 182054Z AUTO 00000KT 9SM BKN044 OVC060 02/M04 A3023 RMK AO2 SLP241 T00171039 55013
Loading
Personal Weather Stations






























Interactive Weather Map New forecast layout! Learn more

10-Day Weather Forecast

Advertisements
Track Severe Weather on mobile